createdAt,value
2023-02-17T00:00:52.822Z,1018.83
2023-02-17T00:01:52.986Z,1018.77
2023-02-17T00:02:53.151Z,1018.78
2023-02-17T00:03:53.392Z,1018.70
2023-02-17T00:04:53.508Z,1018.70
2023-02-17T00:05:53.680Z,1018.68
2023-02-17T00:06:53.854Z,1018.67
2023-02-17T00:07:54.016Z,1018.70
2023-02-17T00:08:54.196Z,1018.66
2023-02-17T00:09:54.402Z,1018.61
2023-02-17T00:10:54.533Z,1018.58
2023-02-17T00:11:54.714Z,1018.59
2023-02-17T00:12:54.886Z,1018.59
2023-02-17T00:13:56.429Z,1018.58
2023-02-17T00:16:11.168Z,1018.58
2023-02-17T00:17:11.308Z,1018.54
2023-02-17T00:18:11.435Z,1018.51
2023-02-17T00:19:11.608Z,1018.45
2023-02-17T00:20:11.820Z,1018.47
2023-02-17T00:21:11.972Z,1018.43
2023-02-17T00:22:12.172Z,1018.46
2023-02-17T00:23:12.311Z,1018.49
2023-02-17T00:24:12.479Z,1018.46
2023-02-17T00:25:12.649Z,1018.42
2023-02-17T00:26:12.827Z,1018.43
2023-02-17T00:27:12.982Z,1018.43
2023-02-17T00:28:13.162Z,1018.38
2023-02-17T00:29:13.473Z,1018.42
2023-02-17T00:30:13.555Z,1018.43
2023-02-17T00:31:13.752Z,1018.41
2023-02-17T00:32:13.919Z,1018.42
2023-02-17T00:33:14.011Z,1018.40
2023-02-17T00:34:14.182Z,1018.38
2023-02-17T00:35:14.381Z,1018.31
2023-02-17T00:36:14.532Z,1018.39
2023-02-17T00:37:14.693Z,1018.36
2023-02-17T00:38:14.869Z,1018.37
2023-02-17T00:39:15.037Z,1018.39
2023-02-17T00:40:15.235Z,1018.41
2023-02-17T00:41:15.414Z,1018.40
2023-02-17T00:42:15.616Z,1018.42
2023-02-17T00:43:15.758Z,1018.41
2023-02-17T00:44:15.955Z,1018.42
2023-02-17T00:45:16.108Z,1018.40
2023-02-17T00:46:16.327Z,1018.37
2023-02-17T00:47:16.435Z,1018.37
2023-02-17T00:48:16.657Z,1018.33
2023-02-17T00:49:16.774Z,1018.34
2023-02-17T00:50:16.954Z,1018.33
2023-02-17T00:51:17.110Z,1018.30
2023-02-17T00:52:17.306Z,1018.38
2023-02-17T00:53:17.485Z,1018.32
2023-02-17T00:54:17.635Z,1018.27
2023-02-17T00:55:17.813Z,1018.22
2023-02-17T00:56:18.021Z,1018.20
2023-02-17T00:57:18.152Z,1018.15
2023-02-17T00:58:18.332Z,1018.17
2023-02-17T00:59:18.501Z,1018.22
2023-02-17T01:00:18.675Z,1018.22
2023-02-17T01:01:18.904Z,1018.18
2023-02-17T01:02:19.016Z,1018.14
2023-02-17T01:03:19.181Z,1018.11
2023-02-17T01:04:19.353Z,1018.13
2023-02-17T01:05:19.562Z,1018.07
2023-02-17T01:06:19.728Z,1018.13
2023-02-17T01:07:19.870Z,1018.07
2023-02-17T01:08:20.034Z,1018.05
2023-02-17T01:09:20.197Z,1018.00
2023-02-17T01:10:20.375Z,1018.02
2023-02-17T01:11:20.588Z,1018.03
2023-02-17T01:12:20.724Z,1018.05
2023-02-17T01:13:20.878Z,1018.03
2023-02-17T01:14:21.053Z,1018.03
2023-02-17T01:15:21.216Z,1017.96
2023-02-17T01:16:21.435Z,1018.00
2023-02-17T01:17:21.558Z,1017.98
2023-02-17T01:18:21.730Z,1017.97
2023-02-17T01:19:21.903Z,1017.97
2023-02-17T01:20:22.050Z,1017.94
2023-02-17T01:21:24.471Z,1017.96
2023-02-17T01:22:22.429Z,1017.91
2023-02-17T01:23:22.564Z,1017.91
2023-02-17T01:24:22.735Z,1017.85
2023-02-17T01:25:22.902Z,1017.83
2023-02-17T01:26:23.100Z,1017.70
2023-02-17T01:27:23.304Z,1017.75
2023-02-17T01:28:23.424Z,1017.76
2023-02-17T01:29:23.586Z,1017.72
2023-02-17T01:30:23.808Z,1017.72
2023-02-17T01:31:24.098Z,1017.73
2023-02-17T01:32:24.121Z,1017.67
2023-02-17T01:33:24.295Z,1017.72
2023-02-17T01:34:24.476Z,1017.68
2023-02-17T01:35:24.632Z,1017.71
2023-02-17T01:36:24.829Z,1017.68
2023-02-17T01:37:24.994Z,1017.69
2023-02-17T01:38:25.166Z,1017.69
2023-02-17T01:39:25.332Z,1017.66
2023-02-17T01:40:25.534Z,1017.62
2023-02-17T01:41:25.672Z,1017.62
2023-02-17T01:42:25.857Z,1017.61
2023-02-17T01:43:26.017Z,1017.55
2023-02-17T01:44:26.190Z,1017.55
2023-02-17T01:45:26.371Z,1017.55
2023-02-17T01:46:26.584Z,1017.52
2023-02-17T01:47:26.718Z,1017.60
2023-02-17T01:48:26.902Z,1017.50
2023-02-17T01:49:27.072Z,1017.53
2023-02-17T01:50:27.282Z,1017.53
2023-02-17T01:51:27.382Z,1017.53
2023-02-17T01:52:27.585Z,1017.44
2023-02-17T01:53:27.760Z,1017.45
2023-02-17T01:54:27.940Z,1017.40
2023-02-17T01:55:28.095Z,1017.41
2023-02-17T01:56:28.265Z,1017.42
2023-02-17T01:57:28.450Z,1017.40
2023-02-17T01:58:28.643Z,1017.41
2023-02-17T01:59:28.802Z,1017.39
2023-02-17T02:00:29.000Z,1017.40
2023-02-17T02:01:29.163Z,1017.33
2023-02-17T02:02:29.489Z,1017.28
2023-02-17T02:03:29.562Z,1017.30
2023-02-17T02:04:29.791Z,1017.28
2023-02-17T02:05:31.321Z,1017.27
2023-02-17T02:06:30.056Z,1017.24
2023-02-17T02:07:30.233Z,1017.28
2023-02-17T02:08:30.412Z,1017.28
2023-02-17T02:09:30.573Z,1017.28
2023-02-17T02:10:30.746Z,1017.27
2023-02-17T02:11:30.941Z,1017.25
2023-02-17T02:12:31.101Z,1017.20
2023-02-17T02:13:31.271Z,1017.23
2023-02-17T02:14:31.443Z,1017.20
2023-02-17T02:15:31.609Z,1017.18
2023-02-17T02:16:31.819Z,1017.10
2023-02-17T02:17:31.973Z,1017.10
2023-02-17T02:18:32.152Z,1017.05
2023-02-17T02:19:32.321Z,1017.09
2023-02-17T02:20:32.530Z,1016.98
2023-02-17T02:21:32.660Z,1016.99
2023-02-17T02:22:32.844Z,1016.98
2023-02-17T02:23:33.033Z,1016.97
2023-02-17T02:24:33.178Z,1016.98
2023-02-17T02:25:33.357Z,1016.93
2023-02-17T02:26:33.533Z,1016.94
2023-02-17T02:27:33.720Z,1016.94
2023-02-17T02:28:33.912Z,1016.88
2023-02-17T02:29:34.078Z,1016.85
2023-02-17T02:30:34.214Z,1016.84
2023-02-17T02:31:34.402Z,1016.78
2023-02-17T02:32:34.575Z,1016.77
2023-02-17T02:33:34.732Z,1016.74
2023-02-17T02:34:34.908Z,1016.76
2023-02-17T02:35:35.078Z,1016.76
2023-02-17T02:36:35.251Z,1016.74
2023-02-17T02:37:35.426Z,1016.72
2023-02-17T02:38:35.602Z,1016.70
2023-02-17T02:39:35.776Z,1016.75
2023-02-17T02:40:35.989Z,1016.69
2023-02-17T02:41:43.136Z,1016.74
2023-02-17T02:42:36.314Z,1016.71
2023-02-17T02:43:36.474Z,1016.72
2023-02-17T02:44:36.658Z,1016.70
2023-02-17T02:45:36.854Z,1016.66
2023-02-17T02:46:37.022Z,1016.63
2023-02-17T04:12:27.200Z,1016.02
2023-02-17T04:13:27.374Z,1015.98
2023-02-17T04:14:27.531Z,1015.94
2023-02-17T04:15:27.715Z,1015.93
2023-02-17T04:16:27.919Z,1015.88
2023-02-17T04:17:28.078Z,1015.88
2023-02-17T04:18:28.195Z,1015.91
2023-02-17T04:19:28.386Z,1015.90
2023-02-17T04:20:28.552Z,1015.94
2023-02-17T04:21:28.775Z,1015.88
2023-02-17T04:22:28.913Z,1015.91
2023-02-17T04:23:29.084Z,1015.92
2023-02-17T04:24:29.306Z,1015.86
2023-02-17T04:25:29.438Z,1015.89
2023-02-17T04:26:29.606Z,1015.92
2023-02-17T04:27:36.795Z,1015.86
2023-02-17T04:28:29.950Z,1015.82
2023-02-17T04:29:30.112Z,1015.85
2023-02-17T04:30:30.340Z,1015.80
2023-02-17T04:31:30.529Z,1015.80
2023-02-17T04:32:30.656Z,1015.77
2023-02-17T04:33:30.856Z,1015.74
2023-02-17T04:34:31.002Z,1015.73
2023-02-17T04:35:31.189Z,1015.72
2023-02-17T04:36:31.343Z,1015.70
2023-02-17T04:37:31.533Z,1015.65
2023-02-17T04:38:31.693Z,1015.65
2023-02-17T04:39:31.876Z,1015.60
2023-02-17T04:40:32.029Z,1015.63
2023-02-17T04:41:32.223Z,1015.64
2023-02-17T04:42:32.404Z,1015.63
2023-02-17T04:43:32.562Z,1015.61
2023-02-17T04:44:32.744Z,1015.58
2023-02-17T04:45:32.932Z,1015.65
2023-02-17T04:46:33.104Z,1015.66
2023-02-17T04:47:33.265Z,1015.64
2023-02-17T04:48:33.438Z,1015.67
2023-02-17T04:49:33.609Z,1015.73
2023-02-17T04:50:33.781Z,1015.68
2023-02-17T04:51:33.996Z,1015.66
2023-02-17T04:52:34.164Z,1015.63
2023-02-17T04:53:34.333Z,1015.54
2023-02-17T04:54:34.495Z,1015.57
2023-02-17T04:55:34.671Z,1015.58
2023-02-17T04:56:34.902Z,1015.58
2023-02-17T04:57:35.010Z,1015.57
2023-02-17T04:58:35.176Z,1015.60
2023-02-17T04:59:35.353Z,1015.51
2023-02-17T05:00:35.509Z,1015.56
2023-02-17T05:01:35.725Z,1015.47
2023-02-17T05:02:35.856Z,1015.47
2023-02-17T05:03:36.053Z,1015.50
2023-02-17T05:04:36.218Z,1015.51
2023-02-17T05:05:36.380Z,1015.49
2023-02-17T05:06:36.562Z,1015.52
2023-02-17T05:07:36.723Z,1015.53
2023-02-17T05:08:36.899Z,1015.53
2023-02-17T05:09:37.078Z,1015.51
2023-02-17T05:10:37.242Z,1015.50
2023-02-17T05:11:37.432Z,1015.52
2023-02-17T05:12:37.605Z,1015.49
2023-02-17T05:13:37.785Z,1015.48
2023-02-17T05:14:37.944Z,1015.43
2023-02-17T05:15:38.148Z,1015.40
2023-02-17T05:16:38.332Z,1015.36
2023-02-17T05:17:38.515Z,1015.42
2023-02-17T05:18:38.670Z,1015.38
2023-02-17T05:19:38.856Z,1015.36
2023-02-17T05:20:39.031Z,1015.36
2023-02-17T05:21:39.203Z,1015.37
2023-02-17T05:22:39.364Z,1015.38
2023-02-17T05:23:39.554Z,1015.38
2023-02-17T05:24:39.713Z,1015.33
2023-02-17T05:25:39.898Z,1015.39
2023-02-17T05:26:40.108Z,1015.39
2023-02-17T05:27:40.256Z,1015.38
2023-02-17T05:28:40.403Z,1015.30
2023-02-17T05:29:40.583Z,1015.31
2023-02-17T05:30:40.764Z,1015.27
2023-02-17T05:31:41.066Z,1015.29
2023-02-17T05:32:41.131Z,1015.27
2023-02-17T05:33:41.298Z,1015.27
2023-02-17T05:34:41.469Z,1015.26
2023-02-17T05:35:41.629Z,1015.21
2023-02-17T05:36:42.058Z,1015.11
2023-02-17T05:37:41.976Z,1015.19
2023-02-17T05:38:42.149Z,1015.17
2023-02-17T05:39:42.318Z,1015.18
2023-02-17T05:40:42.483Z,1015.17
2023-02-17T05:41:42.714Z,1015.25
2023-02-17T05:42:42.823Z,1015.16
2023-02-17T05:43:42.999Z,1015.19
2023-02-17T05:44:43.163Z,1015.18
2023-02-17T05:45:43.337Z,1015.20
2023-02-17T05:46:43.533Z,1015.18
2023-02-17T05:47:43.695Z,1015.20
2023-02-17T05:48:43.857Z,1015.17
2023-02-17T05:49:44.037Z,1015.21
2023-02-17T05:50:44.200Z,1015.16
2023-02-17T05:51:44.409Z,1015.18
2023-02-17T05:52:44.541Z,1015.17
2023-02-17T05:53:44.713Z,1015.16
2023-02-17T05:54:44.874Z,1015.14
2023-02-17T05:55:45.049Z,1015.15
2023-02-17T05:56:45.276Z,1015.13
2023-02-17T05:57:45.421Z,1015.17
2023-02-17T05:58:45.583Z,1015.12
2023-02-17T05:59:45.759Z,1015.10
2023-02-17T06:00:45.919Z,1015.09
2023-02-17T06:01:46.126Z,1015.10
2023-02-17T06:02:46.269Z,1015.11
2023-02-17T06:03:46.449Z,1015.15
2023-02-17T06:04:46.693Z,1015.15
2023-02-17T06:05:46.786Z,1015.10
2023-02-17T06:06:46.969Z,1015.06
2023-02-17T06:07:47.152Z,1015.13
2023-02-17T06:08:47.307Z,1015.11
2023-02-17T06:09:47.476Z,1015.10
2023-02-17T06:10:47.652Z,1015.08
2023-02-17T06:11:47.836Z,1015.08
2023-02-17T06:12:48.011Z,1015.13
2023-02-17T06:13:48.185Z,1015.13
2023-02-17T06:14:48.363Z,1015.14
2023-02-17T06:15:48.572Z,1015.14
2023-02-17T06:16:48.714Z,1015.14
2023-02-17T06:17:48.914Z,1015.11
2023-02-17T06:18:49.036Z,1015.08
2023-02-17T06:19:49.236Z,1014.96
2023-02-17T06:20:49.386Z,1015.01
2023-02-17T06:21:49.604Z,1014.90
2023-02-17T06:22:49.769Z,1014.88
2023-02-17T06:23:49.921Z,1014.91
2023-02-17T06:24:50.104Z,1014.92
2023-02-17T06:25:50.255Z,1014.90
2023-02-17T06:26:50.413Z,1014.92
2023-02-17T06:27:50.614Z,1014.87
2023-02-17T06:28:50.753Z,1014.86
2023-02-17T06:29:50.921Z,1014.84
2023-02-17T06:30:51.098Z,1014.80
2023-02-17T06:31:51.370Z,1014.84
2023-02-17T06:32:51.461Z,1014.86
2023-02-17T06:33:51.611Z,1014.81
2023-02-17T06:34:51.753Z,1014.88
2023-02-17T06:35:51.949Z,1014.83
2023-02-17T06:36:52.102Z,1014.79
2023-02-17T06:37:52.336Z,1014.81
2023-02-17T06:38:52.466Z,1014.92
2023-02-17T06:39:52.654Z,1014.84
2023-02-17T06:40:52.843Z,1014.80
2023-02-17T06:41:53.013Z,1014.75
2023-02-17T06:42:53.173Z,1014.83
2023-02-17T06:43:53.355Z,1014.80
2023-02-17T06:44:53.523Z,1014.83
2023-02-17T06:45:53.751Z,1014.75
2023-02-17T06:46:53.924Z,1014.76
2023-02-17T06:47:54.041Z,1014.77
2023-02-17T06:48:54.237Z,1014.74
2023-02-17T06:49:54.412Z,1014.69
2023-02-17T06:50:54.564Z,1014.74
2023-02-17T06:51:54.768Z,1014.65
2023-02-17T06:52:54.919Z,1014.70
2023-02-17T06:53:55.095Z,1014.75
2023-02-17T06:54:55.300Z,1014.73
2023-02-17T06:55:55.511Z,1014.64
2023-02-17T06:56:55.635Z,1014.68
2023-02-17T06:57:55.799Z,1014.71
2023-02-17T06:58:55.961Z,1014.69
2023-02-17T06:59:56.119Z,1014.72
2023-02-17T07:00:56.290Z,1014.66
2023-02-17T07:01:56.583Z,1014.69
2023-02-17T07:02:56.706Z,1014.75
2023-02-17T07:03:56.801Z,1014.73
2023-02-17T07:04:56.978Z,1014.79
2023-02-17T07:05:57.180Z,1014.80
2023-02-17T07:06:57.344Z,1014.79
2023-02-17T07:07:57.505Z,1014.80
2023-02-17T07:08:57.694Z,1014.72
2023-02-17T07:09:57.864Z,1014.76
2023-02-17T07:10:58.020Z,1014.75
2023-02-17T07:11:58.169Z,1014.77
2023-02-17T07:12:58.351Z,1014.77
2023-02-17T07:13:58.556Z,1014.76
2023-02-17T07:14:58.704Z,1014.79
2023-02-17T07:15:58.894Z,1014.78
2023-02-17T07:16:59.091Z,1014.73
2023-02-17T07:17:59.262Z,1014.76
2023-02-17T07:18:59.428Z,1014.70
2023-02-17T07:19:59.610Z,1014.77
2023-02-17T07:20:59.782Z,1014.72
2023-02-17T07:21:59.981Z,1014.72
2023-02-17T07:23:00.129Z,1014.75
2023-02-17T07:24:00.326Z,1014.76
2023-02-17T07:25:00.485Z,1014.76
2023-02-17T07:26:00.636Z,1014.78
2023-02-17T07:27:00.814Z,1014.83
2023-02-17T07:28:00.967Z,1014.84
2023-02-17T07:29:01.160Z,1014.78
2023-02-17T07:30:01.367Z,1014.76
2023-02-17T07:31:01.532Z,1014.72
2023-02-17T07:32:01.730Z,1014.73
2023-02-17T07:33:01.823Z,1014.87
2023-02-17T07:34:01.980Z,1014.67
2023-02-17T07:35:02.144Z,1014.65
2023-02-17T07:36:02.305Z,1014.59
2023-02-17T07:37:02.473Z,1014.66
2023-02-17T07:38:02.641Z,1014.69
2023-02-17T07:39:02.792Z,1014.57
2023-02-17T07:40:02.965Z,1014.57
2023-02-17T07:41:03.137Z,1014.59
2023-02-17T07:42:03.358Z,1014.56
2023-02-17T07:43:03.483Z,1014.52
2023-02-17T07:44:03.632Z,1014.41
2023-02-17T07:45:03.798Z,1014.53
2023-02-17T07:46:04.233Z,1014.49
2023-02-17T07:47:04.148Z,1014.43
2023-02-17T07:48:04.343Z,1014.43
2023-02-17T07:49:04.440Z,1014.38
2023-02-17T07:50:04.613Z,1014.41
2023-02-17T07:51:04.780Z,1014.39
2023-02-17T07:52:05.368Z,1014.42
2023-02-17T07:53:05.155Z,1014.42
2023-02-17T07:54:05.322Z,1014.44
2023-02-17T07:55:05.443Z,1014.43
2023-02-17T07:56:05.924Z,1014.31
2023-02-17T07:57:05.779Z,1014.33
2023-02-17T07:58:05.975Z,1014.36
2023-02-17T07:59:06.128Z,1014.39
2023-02-17T08:00:06.292Z,1014.34
2023-02-17T08:01:06.477Z,1014.32
2023-02-17T08:02:06.719Z,1014.29
2023-02-17T08:03:06.804Z,1014.36
2023-02-17T08:04:06.988Z,1014.31
2023-02-17T08:05:07.150Z,1014.35
2023-02-17T08:06:07.592Z,1014.39
2023-02-17T08:07:07.470Z,1014.32
2023-02-17T08:08:07.650Z,1014.34
2023-02-17T08:09:07.845Z,1014.33
2023-02-17T08:10:08.005Z,1014.36
2023-02-17T08:11:08.840Z,1014.46
2023-02-17T08:12:08.354Z,1014.42
2023-02-17T08:13:08.531Z,1014.38
2023-02-17T08:14:08.677Z,1014.42
2023-02-17T08:15:08.850Z,1014.32
2023-02-17T08:16:09.525Z,1014.25
2023-02-17T08:17:09.227Z,1014.27
2023-02-17T08:18:09.407Z,1014.24
2023-02-17T08:19:09.583Z,1014.22
2023-02-17T08:20:09.773Z,1014.34
2023-02-17T08:21:09.970Z,1014.30
2023-02-17T08:22:10.075Z,1014.30
2023-02-17T08:23:10.270Z,1014.31
2023-02-17T08:24:10.418Z,1014.30
2023-02-17T08:25:10.571Z,1014.24
2023-02-17T08:26:10.749Z,1014.29
2023-02-17T08:27:10.913Z,1014.25
2023-02-17T08:28:11.073Z,1014.21
2023-02-17T08:29:11.292Z,1014.23
2023-02-17T08:30:11.546Z,1014.24
2023-02-17T08:31:11.743Z,1014.26
2023-02-17T08:32:11.782Z,1014.20
2023-02-17T08:33:11.896Z,1014.15
2023-02-17T08:34:12.108Z,1014.21
2023-02-17T08:35:12.240Z,1014.15
2023-02-17T08:36:12.400Z,1014.14
2023-02-17T08:37:12.633Z,1014.23
2023-02-17T08:38:12.746Z,1014.28
2023-02-17T08:39:12.933Z,1014.21
2023-02-17T08:40:13.070Z,1014.21
2023-02-17T08:41:13.288Z,1014.27
2023-02-17T08:42:13.485Z,1014.15
2023-02-17T08:43:13.645Z,1014.16
2023-02-17T08:44:13.771Z,1014.15
2023-02-17T08:45:14.001Z,1014.15
2023-02-17T08:46:14.191Z,1014.19
2023-02-17T08:47:14.325Z,1014.15
2023-02-17T08:48:14.494Z,1014.18
2023-02-17T08:49:14.656Z,1014.17
2023-02-17T08:50:14.822Z,1014.15
2023-02-17T08:51:15.027Z,1014.13
2023-02-17T08:52:15.185Z,1014.14
2023-02-17T08:53:15.338Z,1014.14
2023-02-17T08:54:15.643Z,1014.15
2023-02-17T08:55:15.693Z,1014.13
2023-02-17T08:56:15.922Z,1014.00
2023-02-17T08:57:16.148Z,1014.06
2023-02-17T08:58:16.272Z,1014.02
2023-02-17T08:59:16.450Z,1014.02
2023-02-17T09:00:16.548Z,1014.00
2023-02-17T09:01:16.769Z,1013.91
2023-02-17T09:02:16.981Z,1013.92
2023-02-17T09:03:17.108Z,1013.88
2023-02-17T09:04:17.294Z,1013.86
2023-02-17T09:05:17.443Z,1013.86
2023-02-17T09:06:17.630Z,1013.80
2023-02-17T09:07:17.826Z,1013.75
2023-02-17T09:08:18.012Z,1013.72
2023-02-17T09:09:18.195Z,1013.72
2023-02-17T09:10:18.368Z,1013.69
2023-02-17T09:11:18.547Z,1013.69
2023-02-17T09:12:18.711Z,1013.71
2023-02-17T09:13:18.904Z,1013.69
2023-02-17T09:14:19.134Z,1013.68
2023-02-17T09:15:19.240Z,1013.67
2023-02-17T09:16:19.439Z,1013.65
2023-02-17T09:17:19.575Z,1013.64
2023-02-17T09:18:19.738Z,1013.61
2023-02-17T09:19:19.906Z,1013.59
2023-02-17T09:20:25.201Z,1013.60
2023-02-17T09:21:21.302Z,1013.61
2023-02-17T09:22:31.703Z,1013.56
2023-02-17T09:23:21.582Z,1013.49
2023-02-17T09:24:20.758Z,1013.48
2023-02-17T09:25:20.942Z,1013.41
2023-02-17T09:26:21.126Z,1013.28
2023-02-17T09:27:21.272Z,1013.24
2023-02-17T09:28:21.431Z,1013.41
2023-02-17T09:29:25.346Z,1013.28
2023-02-17T09:30:21.848Z,1013.25
2023-02-17T09:31:22.099Z,1013.33
2023-02-17T09:32:22.313Z,1013.29
2023-02-17T09:33:22.304Z,1013.27
2023-02-17T09:34:22.450Z,1013.30
2023-02-17T09:35:22.703Z,1013.23
2023-02-17T09:36:22.811Z,1013.26
2023-02-17T09:37:22.976Z,1013.26
2023-02-17T09:38:23.127Z,1013.26
2023-02-17T09:39:23.344Z,1013.19
2023-02-17T09:40:23.590Z,1013.23
2023-02-17T09:41:23.656Z,1013.18
2023-02-17T09:42:23.803Z,1013.20
2023-02-17T09:43:23.942Z,1013.23
2023-02-17T09:44:24.101Z,1013.18
2023-02-17T09:45:24.314Z,1013.15
2023-02-17T09:46:24.479Z,1013.05
2023-02-17T09:47:24.693Z,1013.12
2023-02-17T09:48:24.858Z,1013.06
2023-02-17T09:49:24.950Z,1013.02
2023-02-17T09:50:25.134Z,1013.02
2023-02-17T09:51:25.284Z,1013.03
2023-02-17T09:52:25.445Z,1012.99
2023-02-17T09:53:25.710Z,1012.96
2023-02-17T09:54:25.775Z,1012.97
2023-02-17T09:55:25.942Z,1012.96
2023-02-17T09:56:26.107Z,1012.93
2023-02-17T09:57:26.281Z,1012.89
2023-02-17T09:58:26.479Z,1012.79
2023-02-17T09:59:26.675Z,1012.78
2023-02-17T10:00:26.810Z,1012.78
2023-02-17T10:01:27.009Z,1012.84
2023-02-17T10:02:27.122Z,1012.78
2023-02-17T10:03:27.404Z,1012.75
2023-02-17T10:04:27.616Z,1012.74
2023-02-17T10:05:27.674Z,1012.79
2023-02-17T10:06:27.813Z,1012.77
2023-02-17T10:07:28.009Z,1012.65
2023-02-17T10:08:28.162Z,1012.69
2023-02-17T10:09:28.402Z,1012.73
2023-02-17T10:10:28.483Z,1012.65
2023-02-17T10:11:28.696Z,1012.73
2023-02-17T10:12:28.928Z,1012.77
2023-02-17T10:13:29.082Z,1012.77
2023-02-17T10:14:29.243Z,1012.64
2023-02-17T10:15:29.375Z,1012.62
2023-02-17T10:16:29.581Z,1012.59
2023-02-17T10:17:29.687Z,1012.66
2023-02-17T10:18:29.926Z,1012.50
2023-02-17T10:19:30.052Z,1012.45
2023-02-17T10:20:30.269Z,1012.54
2023-02-17T10:21:30.345Z,1012.56
2023-02-17T10:22:30.553Z,1012.56
2023-02-17T10:23:30.684Z,1012.56
2023-02-17T10:24:30.854Z,1012.49
2023-02-17T10:25:31.066Z,1012.52
2023-02-17T10:26:31.215Z,1012.45
2023-02-17T10:27:31.460Z,1012.35
2023-02-17T10:28:38.546Z,1012.42
2023-02-17T10:29:31.723Z,1012.42
2023-02-17T10:30:31.934Z,1012.41
2023-02-17T10:31:32.123Z,1012.38
2023-02-17T10:32:32.370Z,1012.36
2023-02-17T10:33:32.391Z,1012.28
2023-02-17T10:34:32.564Z,1012.32
2023-02-17T10:35:32.821Z,1012.36
2023-02-17T10:36:32.892Z,1012.40
2023-02-17T10:37:33.054Z,1012.28
2023-02-17T10:38:33.348Z,1012.31
2023-02-17T10:39:33.405Z,1012.26
2023-02-17T10:40:33.572Z,1012.25
2023-02-17T10:41:33.737Z,1012.17
2023-02-17T10:42:33.906Z,1012.17
2023-02-17T10:43:34.098Z,1012.18
2023-02-17T10:44:34.547Z,1012.14
2023-02-17T10:45:34.395Z,1012.13
2023-02-17T10:46:34.638Z,1012.11
2023-02-17T10:47:34.736Z,1012.07
2023-02-17T10:48:34.933Z,1012.06
2023-02-17T10:49:35.065Z,1012.05
2023-02-17T10:50:35.227Z,1012.08
2023-02-17T10:51:35.405Z,1012.04
2023-02-17T10:52:35.549Z,1012.02
2023-02-17T10:53:35.754Z,1011.97
2023-02-17T10:54:35.902Z,1012.05
2023-02-17T10:55:36.092Z,1012.03
2023-02-17T10:56:36.248Z,1011.90
2023-02-17T10:57:36.458Z,1012.00
2023-02-17T10:58:36.637Z,1011.94
2023-02-17T10:59:36.784Z,1011.92
2023-02-17T11:00:36.997Z,1011.96
2023-02-17T11:01:37.101Z,1011.87
2023-02-17T11:02:37.283Z,1011.85
2023-02-17T11:03:37.935Z,1011.86
2023-02-17T11:04:37.625Z,1011.72
2023-02-17T11:05:37.808Z,1011.65
2023-02-17T11:06:37.976Z,1011.59
2023-02-17T11:07:38.117Z,1011.61
2023-02-17T11:08:38.345Z,1011.61
2023-02-17T11:09:38.470Z,1011.59
2023-02-17T11:10:38.652Z,1011.60
2023-02-17T11:11:38.796Z,1011.55
2023-02-17T11:12:39.017Z,1011.51
2023-02-17T11:13:39.198Z,1011.45
2023-02-17T11:14:39.338Z,1011.42
2023-02-17T11:15:39.503Z,1011.36
2023-02-17T11:16:39.722Z,1011.37
2023-02-17T11:17:39.858Z,1011.31
2023-02-17T11:18:40.004Z,1011.32
2023-02-17T11:19:40.169Z,1011.32
2023-02-17T11:20:40.342Z,1011.26
2023-02-17T11:21:40.578Z,1011.24
2023-02-17T11:22:40.746Z,1011.18
2023-02-17T11:23:40.869Z,1011.24
2023-02-17T11:24:41.068Z,1011.27
2023-02-17T11:25:41.225Z,1011.28
2023-02-17T11:26:41.394Z,1011.32
2023-02-17T11:27:41.595Z,1011.25
2023-02-17T11:28:41.749Z,1011.18
2023-02-17T11:29:41.910Z,1011.22
2023-02-17T11:30:42.141Z,1011.17
2023-02-17T11:31:42.350Z,1011.05
2023-02-17T11:32:42.490Z,1011.11
2023-02-17T11:33:42.671Z,1011.07
2023-02-17T11:34:42.821Z,1010.92
2023-02-17T11:35:43.010Z,1010.90
2023-02-17T11:36:43.194Z,1010.86
2023-02-17T11:37:43.389Z,1010.84
2023-02-17T11:38:43.575Z,1010.88
2023-02-17T11:39:43.736Z,1010.84
2023-02-17T11:40:43.906Z,1010.88
2023-02-17T11:41:44.076Z,1010.82
2023-02-17T11:42:44.280Z,1010.92
2023-02-17T11:43:44.463Z,1010.87
2023-02-17T11:44:44.642Z,1010.81
2023-02-17T11:45:44.869Z,1010.80
2023-02-17T11:46:45.000Z,1010.74
2023-02-17T11:47:45.174Z,1010.84
2023-02-17T11:48:45.367Z,1010.70
2023-02-17T11:49:45.530Z,1010.63
2023-02-17T11:50:45.738Z,1010.60
2023-02-17T11:51:45.882Z,1010.54
2023-02-17T11:52:46.052Z,1010.54
2023-02-17T11:53:46.333Z,1010.58
2023-02-17T11:54:46.423Z,1010.40
2023-02-17T11:55:46.597Z,1010.50
2023-02-17T11:56:46.807Z,1010.46
2023-02-17T11:57:46.966Z,1010.43
2023-02-17T11:58:47.162Z,1010.23
2023-02-17T11:59:47.298Z,1010.23
2023-02-17T12:00:47.461Z,1010.17
2023-02-17T12:01:47.649Z,1010.16
2023-02-17T12:02:47.928Z,1010.13
2023-02-17T12:03:48.133Z,1010.08
2023-02-17T12:04:48.179Z,1010.04
2023-02-17T12:05:48.341Z,1010.05
2023-02-17T12:06:48.532Z,1010.14
2023-02-17T12:07:48.750Z,1010.13
2023-02-17T12:08:48.894Z,1010.08
2023-02-17T12:09:49.058Z,1010.16
2023-02-17T12:10:49.252Z,1010.13
2023-02-17T12:11:49.507Z,1010.09
2023-02-17T12:12:49.632Z,1010.12
2023-02-17T12:13:49.783Z,1010.27
2023-02-17T12:14:49.952Z,1010.29
2023-02-17T12:15:50.151Z,1010.18
2023-02-17T12:16:50.371Z,1010.15
2023-02-17T12:17:50.485Z,1010.23
2023-02-17T12:18:50.659Z,1010.21
2023-02-17T12:19:50.839Z,1010.12
2023-02-17T12:20:51.029Z,1010.03
2023-02-17T12:21:51.210Z,1010.11
2023-02-17T12:22:51.389Z,1009.96
2023-02-17T12:23:51.596Z,1010.04
2023-02-17T12:24:51.747Z,1010.00
2023-02-17T12:25:51.925Z,1010.04
2023-02-17T12:26:52.096Z,1010.06
2023-02-17T12:27:52.270Z,1009.99
2023-02-17T12:28:52.459Z,1010.01
2023-02-17T12:29:52.629Z,1010.03
2023-02-17T12:30:52.984Z,1009.97
2023-02-17T12:31:53.047Z,1010.02
2023-02-17T12:32:53.148Z,1009.88
2023-02-17T12:33:53.278Z,1009.93
2023-02-17T12:34:53.466Z,1009.90
2023-02-17T12:35:53.638Z,1009.84
2023-02-17T12:36:53.858Z,1009.96
2023-02-17T12:37:54.013Z,1009.84
2023-02-17T12:38:54.150Z,1009.99
2023-02-17T12:39:54.341Z,1009.83
2023-02-17T12:40:54.580Z,1009.75
2023-02-17T12:41:54.682Z,1009.77
2023-02-17T12:42:54.855Z,1009.77
2023-02-17T12:43:55.025Z,1009.61
2023-02-17T12:44:55.194Z,1009.53
2023-02-17T12:45:55.399Z,1009.43
2023-02-17T12:46:55.548Z,1009.44
2023-02-17T12:47:55.768Z,1009.37
2023-02-17T12:48:55.912Z,1009.41
2023-02-17T12:49:56.112Z,1009.37
2023-02-17T12:50:56.283Z,1009.47
2023-02-17T12:51:56.453Z,1009.24
2023-02-17T12:52:56.604Z,1009.48
2023-02-17T12:53:56.783Z,1009.40
2023-02-17T12:54:56.958Z,1009.42
2023-02-17T12:55:57.144Z,1009.41
2023-02-17T12:56:57.329Z,1009.59
2023-02-17T12:57:57.472Z,1009.58
2023-02-17T12:58:57.638Z,1009.46
2023-02-17T12:59:57.793Z,1009.55
2023-02-17T13:00:58.078Z,1009.57
2023-02-17T13:01:58.182Z,1009.50
2023-02-17T13:02:58.342Z,1009.55
2023-02-17T13:03:58.508Z,1009.42
2023-02-17T13:04:58.659Z,1009.40
2023-02-17T13:05:58.858Z,1009.51
2023-02-17T13:06:58.993Z,1009.41
2023-02-17T13:07:59.154Z,1009.39
2023-02-17T13:08:59.314Z,1009.59
2023-02-17T13:09:59.479Z,1009.48
2023-02-17T13:10:59.707Z,1009.42
2023-02-17T13:11:59.832Z,1009.43
2023-02-17T13:13:00.027Z,1009.32
2023-02-17T13:14:00.186Z,1009.26
2023-02-17T13:15:00.375Z,1009.39
2023-02-17T13:16:00.584Z,1009.42
2023-02-17T13:17:00.694Z,1009.30
2023-02-17T13:18:00.863Z,1009.46
2023-02-17T13:19:01.055Z,1009.36
2023-02-17T13:20:01.218Z,1009.32
2023-02-17T13:21:01.343Z,1009.39
2023-02-17T13:22:01.497Z,1009.44
2023-02-17T13:23:01.714Z,1009.49
2023-02-17T13:24:01.869Z,1009.45
2023-02-17T13:25:02.089Z,1009.40
2023-02-17T13:26:02.263Z,1009.41
2023-02-17T13:27:02.436Z,1009.45
2023-02-17T13:28:02.594Z,1009.30
2023-02-17T13:29:02.790Z,1009.30
2023-02-17T13:30:02.953Z,1009.39
2023-02-17T13:31:03.204Z,1009.40
2023-02-17T13:32:03.491Z,1009.46
2023-02-17T13:33:03.449Z,1009.55
2023-02-17T13:34:03.649Z,1009.36